Time;durP1;ratioP1;P1;durP2;ratioP2;P2;SDS_P1;SDS_P2;PMS_P1;PMS_P2;Temp;Humidity;BMP_temperature;BMP_pressure;BME280_temperature;BME280_humidity;BME280_pressure;Samples;Min_cycle;Max_cycle;Signal;HPM_P1;HPM_P2
2023/10/26 00:01:14;;;;;;;62.10;32.80;;;;;;;8.37;100.00;98723.59;214510;1288;139857;-92
2023/10/26 00:06:15;;;;;;;54.90;31.00;;;;;;;8.41;100.00;98717.69;214884;1284;111219;-93
2023/10/26 00:11:16;;;;;;;50.50;29.10;;;;;;;8.42;100.00;98713.23;214402;1288;140617;-92
2023/10/26 00:16:16;;;;;;;51.50;28.60;;;;;;;8.44;100.00;98709.98;214944;1285;139620;-92
2023/10/26 00:21:17;;;;;;;46.40;27.20;;;;;;;8.46;100.00;98708.10;214760;1285;140596;-91
2023/10/26 00:26:17;;;;;;;45.40;26.80;;;;;;;8.47;100.00;98703.79;215536;1283;139235;-91
2023/10/26 00:31:18;;;;;;;46.60;28.60;;;;;;;8.47;100.00;98698.52;214847;1285;140181;-93
2023/10/26 00:36:19;;;;;;;44.20;26.60;;;;;;;8.50;100.00;98702.82;215672;1288;97970;-92
2023/10/26 00:41:19;;;;;;;46.10;27.00;;;;;;;8.49;100.00;98703.30;215141;1285;140158;-94
2023/10/26 00:46:20;;;;;;;48.10;25.70;;;;;;;8.43;100.00;98705.45;216076;1287;139019;-94
2023/10/26 00:51:22;;;;;;;52.50;25.80;;;;;;;8.37;100.00;98707.63;215224;1285;139505;-92
2023/10/26 00:56:22;;;;;;;59.10;27.60;;;;;;;8.31;100.00;98702.11;215433;1285;139487;-94
2023/10/26 01:01:23;;;;;;;55.80;27.90;;;;;;;8.20;100.00;98686.20;214800;1288;139714;-92
2023/10/26 01:06:24;;;;;;;54.50;28.90;;;;;;;8.19;100.00;98678.85;215430;1283;97938;-92
2023/10/26 01:11:25;;;;;;;48.50;25.90;;;;;;;8.21;100.00;98671.73;214764;1285;139921;-93
2023/10/26 01:16:25;;;;;;;50.30;26.10;;;;;;;8.22;100.00;98667.27;215537;1288;139686;-92
2023/10/26 01:21:28;;;;;;;46.70;25.10;;;;;;;8.23;100.00;98664.18;214690;1283;139809;-93
2023/10/26 01:26:28;;;;;;;48.50;25.00;;;;;;;8.18;100.00;98651.23;215438;1286;139487;-92
2023/10/26 01:31:29;;;;;;;46.60;24.90;;;;;;;8.17;100.00;98647.93;214660;1288;140627;-93
2023/10/26 01:36:30;;;;;;;49.90;24.70;;;;;;;8.13;100.00;98648.59;215334;1285;98027;-93
2023/10/26 01:41:32;;;;;;;44.20;24.80;;;;;;;8.11;100.00;98643.90;214722;1285;139612;-93
2023/10/26 01:46:32;;;;;;;46.40;23.50;;;;;;;8.07;100.00;98635.48;215302;1284;138987;-92
2023/10/26 01:51:33;;;;;;;46.60;23.40;;;;;;;8.08;100.00;98628.75;214658;1285;140859;-91
2023/10/26 01:56:34;;;;;;;75.10;25.30;;;;;;;8.10;100.00;98623.48;214586;1285;139852;-93
2023/10/26 02:01:34;;;;;;;60.10;26.10;;;;;;;8.10;100.00;98613.63;214496;1288;139819;-90
2023/10/26 02:06:35;;;;;;;80.70;24.30;;;;;;;8.12;100.00;98606.33;215135;1284;98830;-91
2023/10/26 02:11:36;;;;;;;66.90;24.20;;;;;;;8.12;100.00;98594.89;214592;1288;139826;-93
2023/10/26 02:16:36;;;;;;;44.30;22.00;;;;;;;8.14;100.00;98593.55;214944;1288;139151;-93
2023/10/26 02:21:37;;;;;;;47.50;23.50;;;;;;;8.18;100.00;98593.36;214436;1286;140005;-90
2023/10/26 02:26:38;;;;;;;56.60;21.90;;;;;;;8.20;100.00;98589.85;214872;1285;139145;-93
2023/10/26 02:31:38;;;;;;;52.20;22.70;;;;;;;8.23;100.00;98584.80;214223;1284;140138;-92
2023/10/26 02:36:39;;;;;;;58.80;25.60;;;;;;;8.25;100.00;98575.87;214961;1285;139383;-92
2023/10/26 02:41:40;;;;;;;56.50;25.10;;;;;;;8.27;100.00;98569.98;214450;1285;139770;-93
2023/10/26 02:46:40;;;;;;;56.40;25.50;;;;;;;8.29;100.00;98562.13;214863;1285;139739;-93
2023/10/26 02:51:41;;;;;;;61.70;28.60;;;;;;;8.33;100.00;98553.48;214354;1284;140365;-92
2023/10/26 02:56:42;;;;;;;52.40;25.10;;;;;;;8.36;100.00;98538.41;214924;1284;139320;-93
2023/10/26 03:01:43;;;;;;;51.60;25.40;;;;;;;8.37;100.00;98526.19;214355;1285;140679;-91
2023/10/26 03:06:44;;;;;;;51.10;25.70;;;;;;;8.40;100.00;98522.63;214939;1285;139262;-92
2023/10/26 03:11:44;;;;;;;50.60;25.30;;;;;;;8.45;100.00;98523.58;214545;1288;140260;-93
2023/10/26 03:16:45;;;;;;;59.90;26.90;;;;;;;8.51;100.00;98526.58;214782;1285;139036;-92
2023/10/26 03:21:46;;;;;;;53.40;25.70;;;;;;;8.56;100.00;98530.20;214777;1288;140150;-93
2023/10/26 03:26:47;;;;;;;56.90;27.30;;;;;;;8.60;100.00;98528.90;215463;1285;140324;-92
2023/10/26 03:31:48;;;;;;;64.90;29.50;;;;;;;8.66;100.00;98524.68;214288;1283;140204;-92
2023/10/26 03:36:48;;;;;;;65.40;29.10;;;;;;;8.71;100.00;98524.08;214918;1286;139187;-92
2023/10/26 03:41:49;;;;;;;57.10;25.50;;;;;;;8.76;100.00;98520.33;214421;1288;140931;-92
2023/10/26 03:46:52;;;;;;;59.30;26.90;;;;;;;8.81;100.00;98515.88;214866;1286;139314;-92
2023/10/26 03:51:52;;;;;;;59.70;26.60;;;;;;;8.86;100.00;98512.52;214444;1285;141296;-91
2023/10/26 03:56:53;;;;;;;55.90;25.50;;;;;;;8.90;100.00;98507.84;214776;1288;139206;-91
2023/10/26 04:01:54;;;;;;;50.00;23.10;;;;;;;8.93;100.00;98496.90;214286;1285;140072;-90
2023/10/26 04:06:54;;;;;;;54.80;24.50;;;;;;;8.98;100.00;98487.44;214847;1286;138303;-91
2023/10/26 04:11:55;;;;;;;52.60;22.20;;;;;;;9.03;100.00;98485.11;214457;1288;140101;-90
2023/10/26 04:16:55;;;;;;;46.50;21.20;;;;;;;9.06;100.00;98475.10;214864;1284;138978;-89
2023/10/26 04:21:56;;;;;;;47.10;21.40;;;;;;;9.10;100.00;98464.22;214728;1288;140778;-90
2023/10/26 04:26:56;;;;;;;55.00;22.80;;;;;;;9.13;100.00;98457.83;215491;1285;138672;-90
2023/10/26 04:31:57;;;;;;;49.00;21.20;;;;;;;9.14;100.00;98447.45;214937;1285;139909;-90
2023/10/26 04:36:57;;;;;;;42.30;20.10;;;;;;;9.17;100.00;98434.39;215090;1285;139179;-90
2023/10/26 04:41:58;;;;;;;48.30;21.10;;;;;;;9.19;100.00;98420.33;215014;1286;139693;-89
2023/10/26 04:46:58;;;;;;;47.00;22.20;;;;;;;9.21;100.00;98412.07;215460;1285;139726;-89
2023/10/26 04:52:02;;;;;;;44.50;19.90;;;;;;;9.23;100.00;98406.78;214847;1284;139849;-89
2023/10/26 04:57:03;;;;;;;49.10;22.40;;;;;;;9.24;100.00;98412.18;214919;1288;139207;-90
2023/10/26 05:02:04;;;;;;;49.60;22.50;;;;;;;9.26;100.00;98416.00;214108;1284;140238;-90
2023/10/26 05:07:05;;;;;;;50.20;23.30;;;;;;;9.27;100.00;98404.77;214586;1284;139416;-89
2023/10/26 05:12:05;;;;;;;46.10;21.10;;;;;;;9.27;100.00;98397.52;214481;1286;140538;-87
2023/10/26 05:17:06;;;;;;;44.90;23.50;;;;;;;9.27;100.00;98393.38;214607;1288;138767;-89
2023/10/26 05:22:06;;;;;;;51.90;24.20;;;;;;;9.28;100.00;98392.52;213934;1288;140150;-90
2023/10/26 05:27:07;;;;;;;49.30;23.40;;;;;;;9.28;100.00;98387.78;214889;1288;139261;-89
2023/10/26 05:32:07;;;;;;;49.40;23.70;;;;;;;9.28;100.00;98386.53;214052;1288;139900;-90
2023/10/26 05:37:08;;;;;;;44.90;22.50;;;;;;;9.29;100.00;98386.77;214473;1285;140490;-88
2023/10/26 05:42:08;;;;;;;48.00;24.90;;;;;;;9.29;100.00;98383.86;214323;1284;139986;-89
2023/10/26 05:47:09;;;;;;;43.50;22.00;;;;;;;9.31;100.00;98376.94;214613;1285;139050;-90
2023/10/26 05:52:10;;;;;;;41.50;22.10;;;;;;;9.31;100.00;98372.46;214097;1288;140279;-89
2023/10/26 05:57:10;;;;;;;39.70;21.00;;;;;;;9.30;100.00;98370.20;214878;1285;139302;-89
2023/10/26 06:02:11;;;;;;;42.10;20.80;;;;;;;9.32;100.00;98374.48;214257;1288;140249;-92
2023/10/26 06:07:13;;;;;;;41.30;21.40;;;;;;;9.32;100.00;98377.94;215146;1286;139532;-90
2023/10/26 06:12:13;;;;;;;43.80;21.00;;;;;;;9.33;100.00;98370.32;214749;1285;140545;-89
2023/10/26 06:17:14;;;;;;;43.90;21.00;;;;;;;9.36;100.00;98371.13;215404;1285;138899;-90
2023/10/26 06:22:22;;;;;;;38.60;19.50;;;;;;;9.39;100.00;98369.27;214216;1285;143898;-92
2023/10/26 06:27:23;;;;;;;39.90;20.10;;;;;;;9.43;100.00;98368.58;215072;1283;139242;-91
2023/10/26 06:32:23;;;;;;;40.50;20.30;;;;;;;9.45;100.00;98363.36;214929;1285;140037;-90
2023/10/26 06:37:24;;;;;;;37.00;18.90;;;;;;;9.46;100.00;98361.15;216490;1288;139516;-88
2023/10/26 06:42:25;;;;;;;41.70;21.80;;;;;;;9.47;100.00;98359.10;214981;1288;140995;-89
2023/10/26 06:47:26;;;;;;;31.40;17.60;;;;;;;9.49;100.00;98362.58;215368;1285;139147;-90
2023/10/26 06:52:29;;;;;;;35.00;19.20;;;;;;;9.53;100.00;98355.45;214107;1288;217011;-93
2023/10/26 06:57:34;;;;;;;33.60;17.90;;;;;;;9.58;100.00;98349.77;215107;1288;138978;-91
2023/10/26 07:02:35;;;;;;;36.70;19.40;;;;;;;9.65;100.00;98350.50;214623;1285;140017;-91
2023/10/26 07:07:36;;;;;;;36.20;18.60;;;;;;;9.68;100.00;98342.39;215248;1285;138599;-92
2023/10/26 07:12:39;;;;;;;35.60;18.80;;;;;;;9.69;100.00;98339.69;215045;1288;139584;-91
2023/10/26 07:17:43;;;;;;;40.90;22.30;;;;;;;9.74;100.00;98337.09;215194;1285;138545;-88
2023/10/26 07:22:45;;;;;;;32.90;16.60;;;;;;;9.77;100.00;98338.05;214930;1285;140294;-90
2023/10/26 07:27:45;;;;;;;31.80;16.40;;;;;;;9.83;100.00;98343.42;215191;1285;138729;-89
2023/10/26 07:32:46;;;;;;;34.40;19.10;;;;;;;9.89;100.00;98346.38;214416;1288;140318;-89
2023/10/26 07:37:47;;;;;;;41.40;21.80;;;;;;;9.96;100.00;98351.27;215064;1285;138925;-88
2023/10/26 07:42:48;;;;;;;37.40;18.90;;;;;;;10.00;100.00;98360.83;214425;1285;140167;-88
2023/10/26 07:47:48;;;;;;;37.40;19.40;;;;;;;10.07;100.00;98355.06;215058;1285;97856;-89
2023/10/26 07:52:49;;;;;;;33.20;19.00;;;;;;;10.13;100.00;98353.85;214941;1285;139933;-88
2023/10/26 07:57:50;;;;;;;35.00;19.00;;;;;;;10.17;100.00;98354.70;214861;1285;139136;-88
2023/10/26 08:03:27;;;;;;;38.20;19.40;;;;;;;10.25;100.00;98356.81;214551;1284;139754;-88
2023/10/26 08:08:31;;;;;;;36.00;19.40;;;;;;;10.30;100.00;98354.97;214731;1288;139093;-87
2023/10/26 08:13:33;;;;;;;38.00;21.40;;;;;;;10.32;100.00;98353.85;214324;1285;140947;-87
2023/10/26 08:18:35;;;;;;;39.60;20.20;;;;;;;10.37;100.00;98354.30;215152;1285;104822;-86
2023/10/26 08:23:35;;;;;;;35.60;19.40;;;;;;;10.43;100.00;98355.34;214531;1287;140215;-85
2023/10/26 08:28:36;;;;;;;36.20;18.40;;;;;;;10.46;100.00;98357.92;215040;1285;139128;-86
2023/10/26 08:33:37;;;;;;;35.90;19.90;;;;;;;10.51;100.00;98359.96;214379;1286;139992;-86
2023/10/26 08:38:38;;;;;;;34.90;18.40;;;;;;;10.52;100.00;98359.22;214958;1285;139166;-86
2023/10/26 08:43:42;;;;;;;37.30;18.30;;;;;;;10.54;100.00;98360.05;214594;1285;140440;-85
2023/10/26 08:48:44;;;;;;;35.80;17.00;;;;;;;10.54;100.00;98361.06;215434;1286;139152;-86
2023/10/26 08:53:45;;;;;;;27.00;13.60;;;;;;;10.57;100.00;98365.40;215619;1284;140110;-85
2023/10/26 08:58:46;;;;;;;24.30;13.30;;;;;;;10.57;100.00;98361.23;215718;1285;138924;-86
2023/10/26 09:03:47;;;;;;;31.70;16.00;;;;;;;10.58;100.00;98362.31;215635;1285;140105;-85
2023/10/26 09:09:01;;;;;;;27.10;14.00;;;;;;;10.57;100.00;98359.42;215696;1285;139179;-86
2023/10/26 09:14:18;;;;;;;22.80;11.10;;;;;;;10.58;100.00;98356.25;214460;1285;139824;-87
2023/10/26 09:19:19;;;;;;;25.30;12.50;;;;;;;10.57;100.00;98356.75;213866;1285;140079;-86
2023/10/26 09:24:24;;;;;;;21.20;11.50;;;;;;;10.57;100.00;98352.98;214891;1285;99260;-86
2023/10/26 09:29:42;;;;;;;19.80;10.70;;;;;;;10.56;100.00;98355.05;213895;1286;140333;-86
2023/10/26 09:34:44;;;;;;;20.10;10.40;;;;;;;10.56;100.00;98350.81;214599;1288;139458;-84
2023/10/26 09:39:47;;;;;;;19.80;10.70;;;;;;;10.58;100.00;98351.46;213890;1285;140230;-85
2023/10/26 09:44:48;;;;;;;21.20;10.60;;;;;;;10.59;100.00;98355.38;214462;1288;139156;-84
2023/10/26 09:49:49;;;;;;;28.80;14.90;;;;;;;10.59;100.00;98358.21;214044;1285;140275;-85
2023/10/26 09:54:49;;;;;;;24.00;12.40;;;;;;;10.63;100.00;98359.20;214422;1288;139226;-85
2023/10/26 09:59:53;;;;;;;26.40;13.70;;;;;;;10.69;100.00;98352.94;214201;1288;140445;-85
2023/10/26 10:04:54;;;;;;;23.30;11.80;;;;;;;10.70;100.00;98348.68;215279;1287;138905;-87
2023/10/26 10:10:01;;;;;;;23.70;12.10;;;;;;;10.73;100.00;98349.88;214148;1285;140107;-85
2023/10/26 10:15:06;;;;;;;24.90;14.20;;;;;;;10.78;100.00;98353.67;214677;1291;139814;-84
2023/10/26 10:20:22;;;;;;;22.00;12.60;;;;;;;10.77;100.00;98356.06;214019;1288;140077;-85
2023/10/26 10:25:48;;;;;;;25.50;14.30;;;;;;;10.81;100.00;98357.40;214603;1289;139733;-85
2023/10/26 10:30:55;;;;;;;29.60;14.90;;;;;;;10.80;100.00;98352.23;214122;1287;140363;-85
2023/10/26 10:36:04;;;;;;;30.90;16.30;;;;;;;10.77;100.00;98352.77;214784;1288;98053;-85
2023/10/26 10:41:05;;;;;;;30.10;16.00;;;;;;;10.77;100.00;98351.27;213833;1288;139896;-85
2023/10/26 10:46:09;;;;;;;31.20;16.30;;;;;;;10.82;100.00;98352.73;214310;1289;139399;-85
2023/10/26 10:51:10;;;;;;;39.50;18.20;;;;;;;10.89;100.00;98346.81;213779;1291;140379;-85
2023/10/26 10:56:10;;;;;;;35.20;18.70;;;;;;;10.92;100.00;98341.18;214322;1288;140312;-85
2023/10/26 11:01:18;;;;;;;31.80;17.90;;;;;;;10.92;100.00;98341.40;213792;1288;140492;-86
2023/10/26 11:06:19;;;;;;;39.60;20.20;;;;;;;10.93;100.00;98341.63;214253;1288;98024;-85
2023/10/26 11:11:26;;;;;;;40.40;21.00;;;;;;;10.96;100.00;98337.30;213719;1288;140570;-85
2023/10/26 11:16:27;;;;;;;37.50;19.40;;;;;;;10.98;100.00;98336.79;214195;1288;138940;-85
2023/10/26 11:21:27;;;;;;;38.80;19.70;;;;;;;10.98;100.00;98331.66;213763;1290;140372;-85
2023/10/26 11:26:28;;;;;;;34.60;19.30;;;;;;;11.02;100.00;98334.63;214333;1290;139159;-85
2023/10/26 11:31:39;;;;;;;41.00;21.40;;;;;;;11.05;100.00;98334.71;213780;1288;141108;-84
2023/10/26 11:36:44;;;;;;;40.20;21.60;;;;;;;11.11;100.00;98335.98;214502;1289;99536;-84
2023/10/26 11:41:55;;;;;;;43.00;23.10;;;;;;;11.16;100.00;98339.39;214265;1286;139800;-85
2023/10/26 11:46:57;;;;;;;43.10;22.60;;;;;;;11.18;100.00;98339.20;214825;1286;139431;-85
2023/10/26 11:51:58;;;;;;;41.50;23.40;;;;;;;11.19;100.00;98337.91;214413;1288;140163;-85
2023/10/26 11:56:59;;;;;;;40.30;21.60;;;;;;;11.18;100.00;98332.59;214738;1288;139720;-84
2023/10/26 12:01:59;;;;;;;41.20;22.30;;;;;;;11.21;100.00;98329.44;214404;1285;140805;-85
2023/10/26 12:07:00;;;;;;;37.00;20.60;;;;;;;11.26;100.00;98327.36;214815;1284;139768;-85
2023/10/26 12:12:00;;;;;;;36.50;19.80;;;;;;;11.34;100.00;98323.21;214284;1286;140888;-85
2023/10/26 12:17:01;;;;;;;33.20;18.30;;;;;;;11.44;100.00;98325.02;214667;1288;139398;-85
2023/10/26 12:22:01;;;;;;;37.10;19.70;;;;;;;11.47;100.00;98324.60;214259;1288;140430;-85
2023/10/26 12:27:02;;;;;;;31.50;17.90;;;;;;;11.49;100.00;98328.02;214495;1288;139839;-83
2023/10/26 12:32:03;;;;;;;30.20;17.50;;;;;;;11.54;100.00;98329.61;214235;1286;140011;-84
2023/10/26 12:37:04;;;;;;;32.80;18.60;;;;;;;11.63;100.00;98324.38;214712;1286;139419;-84
2023/10/26 12:42:04;;;;;;;31.70;19.00;;;;;;;11.64;100.00;98328.04;214439;1286;140484;-85
2023/10/26 12:47:05;;;;;;;29.50;16.40;;;;;;;11.60;100.00;98336.80;214884;1288;139957;-85
2023/10/26 12:52:06;;;;;;;31.40;16.80;;;;;;;11.61;100.00;98333.55;214129;1284;140271;-85
2023/10/26 12:57:06;;;;;;;28.60;16.70;;;;;;;11.68;100.00;98337.95;215344;1288;140981;-85
2023/10/26 13:02:07;;;;;;;43.40;24.70;;;;;;;11.68;100.00;98333.27;214596;1285;139997;-85
2023/10/26 13:07:07;;;;;;;29.30;16.40;;;;;;;11.69;100.00;98340.33;215144;1286;139327;-85
2023/10/26 13:12:08;;;;;;;37.30;19.50;;;;;;;11.72;100.00;98332.45;214404;1287;141456;-85
2023/10/26 13:17:09;;;;;;;30.10;17.00;;;;;;;11.72;100.00;98332.55;214484;1286;139252;-85
2023/10/26 13:22:09;;;;;;;27.20;16.70;;;;;;;11.78;100.00;98340.98;214252;1288;140789;-84
2023/10/26 13:27:10;;;;;;;32.40;17.70;;;;;;;11.79;100.00;98345.41;214756;1288;139205;-85
2023/10/26 13:32:11;;;;;;;25.10;13.80;;;;;;;11.78;100.00;98344.51;214177;1288;140093;-84
2023/10/26 13:37:12;;;;;;;25.40;13.90;;;;;;;11.78;100.00;98342.39;214982;1286;139884;-84
2023/10/26 13:42:12;;;;;;;21.20;13.00;;;;;;;11.81;100.00;98347.58;214702;1286;140212;-84
2023/10/26 13:47:12;;;;;;;24.40;13.70;;;;;;;11.83;100.00;98347.54;215025;1286;139235;-85
2023/10/26 13:52:13;;;;;;;29.30;17.10;;;;;;;11.88;100.00;98353.05;214276;1286;140099;-84
2023/10/26 13:57:14;;;;;;;24.10;14.80;;;;;;;11.92;100.00;98358.53;214989;1288;139482;-85
2023/10/26 14:02:19;;;;;;;32.80;18.50;;;;;;;11.88;100.00;98359.34;214180;1286;140449;-84
2023/10/26 14:07:19;;;;;;;33.30;17.50;;;;;;;11.85;100.00;98361.64;215051;1286;139622;-85
2023/10/26 14:12:20;;;;;;;34.60;19.20;;;;;;;11.85;100.00;98361.95;214652;1286;140418;-85
2023/10/26 14:17:21;;;;;;;33.20;18.20;;;;;;;11.85;100.00;98360.23;214974;1285;138892;-86
2023/10/26 14:22:21;;;;;;;51.60;22.90;;;;;;;11.83;100.00;98358.21;214612;1289;140196;-86
2023/10/26 14:27:22;;;;;;;62.70;26.00;;;;;;;11.87;100.00;98370.09;214718;1285;139575;-84
2023/10/26 14:32:23;;;;;;;70.60;29.00;;;;;;;11.91;100.00;98364.23;214278;1285;141006;-85
2023/10/26 14:37:26;;;;;;;30.40;17.20;;;;;;;11.94;100.00;98364.21;214988;1288;139311;-84
2023/10/26 14:42:27;;;;;;;33.20;16.90;;;;;;;11.97;100.00;98367.67;214403;1289;140601;-84
2023/10/26 14:47:27;;;;;;;36.00;23.40;;;;;;;11.95;100.00;98371.77;214951;1286;139402;-85
2023/10/26 14:52:28;;;;;;;28.80;18.20;;;;;;;11.95;100.00;98372.79;214431;1288;141121;-84
2023/10/26 14:57:28;;;;;;;32.10;18.90;;;;;;;11.94;100.00;98372.52;214665;1288;139375;-84
2023/10/26 15:02:28;;;;;;;28.70;17.80;;;;;;;11.92;100.00;98368.16;214229;1288;139918;-83
2023/10/26 15:07:29;;;;;;;32.00;19.00;;;;;;;11.93;100.00;98373.17;214715;1288;139911;-84
2023/10/26 15:12:30;;;;;;;31.40;19.70;;;;;;;11.94;100.00;98375.95;214316;1288;141450;-84
2023/10/26 15:17:30;;;;;;;30.70;18.90;;;;;;;11.95;100.00;98382.88;214747;1288;139150;-84
2023/10/26 15:22:30;;;;;;;31.10;19.20;;;;;;;11.94;100.00;98389.27;214087;1286;140261;-85
2023/10/26 15:27:31;;;;;;;30.80;19.60;;;;;;;11.91;100.00;98392.04;214978;1285;140153;-84
2023/10/26 15:32:32;;;;;;;35.60;21.80;;;;;;;11.88;100.00;98392.02;214454;1288;141393;-85
2023/10/26 15:37:32;;;;;;;43.70;24.70;;;;;;;11.88;100.00;98387.08;214792;1288;139597;-84
2023/10/26 15:42:33;;;;;;;62.60;34.30;;;;;;;11.85;100.00;98392.75;214498;1285;141062;-84
2023/10/26 15:47:33;;;;;;;53.80;30.30;;;;;;;11.85;100.00;98392.50;214785;1285;140111;-85
2023/10/26 15:52:34;;;;;;;57.30;30.60;;;;;;;11.84;100.00;98396.77;214413;1286;140230;-85
2023/10/26 15:57:34;;;;;;;53.70;30.30;;;;;;;11.80;100.00;98404.29;214717;1289;139326;-85
2023/10/26 16:02:36;;;;;;;46.40;27.10;;;;;;;11.80;100.00;98406.36;214425;1290;140639;-85
2023/10/26 16:07:36;;;;;;;47.30;31.00;;;;;;;11.74;100.00;98405.09;214854;1286;139350;-84
2023/10/26 16:12:37;;;;;;;30.90;18.90;;;;;;;11.69;100.00;98409.23;214509;1289;140397;-84
2023/10/26 16:17:38;;;;;;;25.30;15.50;;;;;;;11.66;100.00;98411.90;214865;1286;139338;-83
2023/10/26 16:22:39;;;;;;;26.50;16.30;;;;;;;11.64;100.00;98416.45;214306;1289;140027;-82
2023/10/26 16:27:39;;;;;;;27.00;14.90;;;;;;;11.61;100.00;98418.02;214980;1288;139831;-82
2023/10/26 16:32:40;;;;;;;24.70;14.60;;;;;;;11.58;100.00;98416.96;214329;1289;139964;-82
2023/10/26 16:37:40;;;;;;;26.10;14.80;;;;;;;11.55;100.00;98415.83;215042;1286;139029;-82
2023/10/26 16:42:41;;;;;;;25.40;16.00;;;;;;;11.55;100.00;98414.20;214630;1288;140689;-83
2023/10/26 16:47:41;;;;;;;27.40;17.80;;;;;;;11.54;100.00;98409.35;214842;1286;139839;-84
2023/10/26 16:52:42;;;;;;;28.00;17.00;;;;;;;11.53;100.00;98407.56;214382;1289;140458;-83
2023/10/26 16:57:42;;;;;;;27.00;16.90;;;;;;;11.51;100.00;98405.15;214951;1286;139294;-83
2023/10/26 17:02:43;;;;;;;25.60;15.20;;;;;;;11.50;100.00;98404.80;214551;1286;140543;-83
2023/10/26 17:07:44;;;;;;;25.90;16.20;;;;;;;11.47;100.00;98400.63;215060;1286;139403;-82
2023/10/26 17:12:45;;;;;;;27.20;16.80;;;;;;;11.45;100.00;98401.54;214604;1287;140642;-83
2023/10/26 17:17:48;;;;;;;32.50;18.10;;;;;;;11.42;100.00;98403.96;215111;1284;98102;-83
2023/10/26 17:22:49;;;;;;;40.80;19.70;;;;;;;11.40;100.00;98402.77;214401;1285;140005;-83
2023/10/26 17:27:50;;;;;;;27.50;17.00;;;;;;;11.37;100.00;98410.08;215118;1288;139393;-82
2023/10/26 17:32:51;;;;;;;37.40;18.40;;;;;;;11.35;100.00;98411.32;214838;1286;139700;-82
2023/10/26 17:37:53;;;;;;;34.20;18.10;;;;;;;11.33;100.00;98413.89;214940;1288;139360;-82
2023/10/26 17:42:53;;;;;;;31.30;16.80;;;;;;;11.31;100.00;98416.05;214700;1288;140093;-83
2023/10/26 17:47:54;;;;;;;24.70;13.20;;;;;;;11.28;100.00;98413.30;215177;1288;99398;-82
2023/10/26 17:52:54;;;;;;;25.10;13.80;;;;;;;11.25;100.00;98412.98;214493;1289;140100;-82
2023/10/26 17:57:55;;;;;;;21.80;13.30;;;;;;;11.24;100.00;98412.14;215151;1286;139119;-83
2023/10/26 18:02:55;;;;;;;23.20;14.20;;;;;;;11.23;100.00;98420.57;214431;1288;140089;-84
2023/10/26 18:07:56;;;;;;;24.60;14.80;;;;;;;11.22;100.00;98414.61;214882;1285;139820;-83
2023/10/26 18:12:56;;;;;;;25.50;16.40;;;;;;;11.21;100.00;98416.45;214537;1288;141471;-82
2023/10/26 18:17:57;;;;;;;28.70;16.30;;;;;;;11.19;100.00;98420.97;215005;1289;98045;-83
2023/10/26 18:23:00;;;;;;;22.30;13.80;;;;;;;11.19;100.00;98422.23;214744;1285;140227;-82
2023/10/26 18:28:00;;;;;;;23.20;13.80;;;;;;;11.17;100.00;98426.12;215306;1288;139833;-83
2023/10/26 18:33:01;;;;;;;25.00;14.50;;;;;;;11.17;100.00;98428.35;215047;1286;140704;-83
2023/10/26 18:38:01;;;;;;;26.00;15.20;;;;;;;11.14;100.00;98432.02;215117;1285;139246;-83
2023/10/26 18:43:03;;;;;;;25.80;14.60;;;;;;;11.14;100.00;98434.63;214383;1285;140234;-82
2023/10/26 18:48:05;;;;;;;23.80;14.60;;;;;;;11.15;100.00;98439.64;214915;1288;98225;-83
2023/10/26 18:53:06;;;;;;;27.80;16.20;;;;;;;11.14;100.00;98444.93;214115;1288;272874;-83
2023/10/26 18:58:10;;;;;;;31.70;19.30;;;;;;;11.14;100.00;98444.86;214970;1285;139590;-85
2023/10/26 19:03:14;;;;;;;29.80;16.50;;;;;;;11.12;100.00;98448.36;214403;1284;140413;-83
2023/10/26 19:08:15;;;;;;;28.00;16.10;;;;;;;11.09;100.00;98453.53;214509;1286;140059;-83
2023/10/26 19:13:16;;;;;;;29.40;16.00;;;;;;;11.09;100.00;98454.00;214166;1286;140070;-82
2023/10/26 19:18:16;;;;;;;26.70;14.30;;;;;;;11.09;100.00;98461.23;215175;1285;98510;-83
2023/10/26 19:23:16;;;;;;;25.70;13.70;;;;;;;11.08;100.00;98467.39;214434;1288;140619;-82
2023/10/26 19:28:17;;;;;;;24.80;14.20;;;;;;;11.08;100.00;98469.84;214953;1285;141496;-82
2023/10/26 19:33:17;;;;;;;21.10;11.80;;;;;;;11.07;100.00;98470.50;214643;1284;140631;-83
2023/10/26 19:38:18;;;;;;;23.50;13.90;;;;;;;11.04;100.00;98466.06;215117;1288;142290;-82
2023/10/26 19:43:18;;;;;;;20.70;12.90;;;;;;;11.04;100.00;98469.92;214329;1288;139909;-82
2023/10/26 19:48:18;;;;;;;22.80;13.40;;;;;;;11.02;100.00;98470.21;215311;1285;98065;-82
2023/10/26 19:53:19;;;;;;;15.80;8.90;;;;;;;10.97;100.00;98465.21;214190;1285;140479;-83
2023/10/26 19:58:19;;;;;;;13.30;6.70;;;;;;;10.90;100.00;98470.40;215152;1285;139816;-82
2023/10/26 20:03:20;;;;;;;14.80;7.50;;;;;;;10.86;100.00;98469.86;214386;1285;139584;-82
2023/10/26 20:08:20;;;;;;;12.60;6.60;;;;;;;10.84;100.00;98473.92;214950;1285;139116;-83
2023/10/26 20:13:21;;;;;;;17.50;8.40;;;;;;;10.81;100.00;98482.55;214555;1285;140806;-82
2023/10/26 20:18:22;;;;;;;16.10;7.30;;;;;;;10.77;100.00;98483.55;215181;1288;98047;-82
2023/10/26 20:23:22;;;;;;;15.80;7.60;;;;;;;10.74;100.00;98487.79;214682;1288;139970;-83
2023/10/26 20:28:23;;;;;;;17.50;8.70;;;;;;;10.73;100.00;98489.56;214865;1286;139727;-84
2023/10/26 20:33:23;;;;;;;17.80;9.90;;;;;;;10.69;100.00;98495.36;214496;1288;140055;-83
2023/10/26 20:38:24;;;;;;;16.10;8.80;;;;;;;10.67;100.00;98496.52;215057;1285;139060;-82
2023/10/26 20:43:24;;;;;;;13.90;7.30;;;;;;;10.65;100.00;98495.69;214271;1285;140992;-84
2023/10/26 20:48:25;;;;;;;14.80;8.20;;;;;;;10.63;100.00;98491.41;214998;1284;98062;-84
2023/10/26 20:53:27;;;;;;;17.30;8.70;;;;;;;10.60;100.00;98488.63;214289;1285;139692;-84
2023/10/26 20:58:29;;;;;;;14.70;8.20;;;;;;;10.56;100.00;98485.81;215050;1285;139501;-85
2023/10/26 21:03:30;;;;;;;16.00;8.50;;;;;;;10.55;100.00;98488.90;214315;1286;139935;-84
2023/10/26 21:08:30;;;;;;;21.40;9.20;;;;;;;10.53;100.00;98495.91;215026;1287;139365;-84
2023/10/26 21:13:31;;;;;;;15.90;8.70;;;;;;;10.50;100.00;98495.67;214456;1286;140019;-83
2023/10/26 21:18:31;;;;;;;18.00;9.60;;;;;;;10.47;100.00;98500.21;215395;1286;97951;-84
2023/10/26 21:23:33;;;;;;;20.20;9.60;;;;;;;10.45;100.00;98500.56;214969;1284;140292;-84
2023/10/26 21:28:38;;;;;;;18.00;9.70;;;;;;;10.44;100.00;98503.09;215360;1288;138696;-83
2023/10/26 21:33:39;;;;;;;22.70;11.00;;;;;;;10.42;100.00;98505.02;215027;1286;140566;-84
2023/10/26 21:38:39;;;;;;;24.20;11.70;;;;;;;10.38;100.00;98508.16;215725;1285;139068;-84
2023/10/26 21:43:40;;;;;;;21.00;10.70;;;;;;;10.39;100.00;98513.08;215034;1285;140108;-84
2023/10/26 21:48:40;;;;;;;23.00;11.10;;;;;;;10.39;100.00;98520.78;215645;1285;98041;-88
2023/10/26 21:53:41;;;;;;;21.80;11.10;;;;;;;10.37;100.00;98514.46;215011;1284;140081;-87
2023/10/26 21:58:42;;;;;;;22.70;11.80;;;;;;;10.36;100.00;98512.91;215662;1285;139030;-87
2023/10/26 22:03:43;;;;;;;22.10;12.20;;;;;;;10.35;100.00;98512.39;215450;1285;140019;-87
2023/10/26 22:08:44;;;;;;;21.10;10.90;;;;;;;10.35;100.00;98516.87;216078;1286;140386;-87
2023/10/26 22:13:45;;;;;;;24.20;12.60;;;;;;;10.32;100.00;98519.34;215906;1284;140300;-86
2023/10/26 22:18:46;;;;;;;21.10;11.90;;;;;;;10.30;100.00;98511.45;216121;1285;97985;-86
2023/10/26 22:23:48;;;;;;;22.70;12.90;;;;;;;10.29;100.00;98512.48;214915;1285;139681;-88